Willow Point, New York
Current Conditions -  °F | °C
As of 4:53 PM on Thursday 23 Oct 2014 (Local Time) from KBGM Reporting Station
Light Rain Light Rain  
Wind Chill: 40°   Ceiling: 1500
Heat Index: 46°   Visibility: 10mi
Dew Point: 41°   Wind: 15mph
Humidity: 83%   Direction: 340°NNW
Pressure: 29.88"   Gusts: 25mph
Location:  42.0463°N, 76.0314°W
Report Text: KBGM 232053Z 34013G22KT 10SM -RA OVC015 08/05 A2988 RMK AO2 RAB04E22B40 SLP125 P0000 60000 T00780050 53002
Loading
Personal Weather Stations






























Interactive Weather Map
Tropical Storm Tracking
New forecast layout! Learn more

10-Day Weather Forecast

Advertisements
Track Severe Weather on mobile